sensor_id;sensor_type;location;lat;lon;timestamp;temperature;humidity
4637;DHT22;2331;48.806;9.140;2024-03-22T00:02:07;14.10;1.00
4637;DHT22;2331;48.806;9.140;2024-03-22T00:04:37;14.10;1.00
4637;DHT22;2331;48.806;9.140;2024-03-22T00:07:03;14.00;1.00
4637;DHT22;2331;48.806;9.140;2024-03-22T00:09:30;14.00;1.00
4637;DHT22;2331;48.806;9.140;2024-03-22T00:11:56;13.90;1.00
4637;DHT22;2331;48.806;9.140;2024-03-22T00:14:23;13.90;1.00
4637;DHT22;2331;48.806;9.140;2024-03-22T00:16:50;13.90;1.00
4637;DHT22;2331;48.806;9.140;2024-03-22T00:19:17;13.90;1.00
4637;DHT22;2331;48.806;9.140;2024-03-22T00:21:46;13.80;1.00
4637;DHT22;2331;48.806;9.140;2024-03-22T00:24:12;13.80;1.00
4637;DHT22;2331;48.806;9.140;2024-03-22T00:26:38;13.80;1.00
4637;DHT22;2331;48.806;9.140;2024-03-22T00:29:05;13.80;1.00
4637;DHT22;2331;48.806;9.140;2024-03-22T00:31:31;13.70;1.00
4637;DHT22;2331;48.806;9.140;2024-03-22T00:33:59;13.70;1.00
4637;DHT22;2331;48.806;9.140;2024-03-22T00:36:25;13.70;1.00
4637;DHT22;2331;48.806;9.140;2024-03-22T00:38:51;13.60;1.00
4637;DHT22;2331;48.806;9.140;2024-03-22T00:41:20;13.50;1.00
4637;DHT22;2331;48.806;9.140;2024-03-22T00:43:47;13.50;1.00
4637;DHT22;2331;48.806;9.140;2024-03-22T00:46:12;13.50;1.00
4637;DHT22;2331;48.806;9.140;2024-03-22T00:48:39;13.50;1.00
4637;DHT22;2331;48.806;9.140;2024-03-22T00:51:06;13.40;1.00
4637;DHT22;2331;48.806;9.140;2024-03-22T00:53:35;13.40;1.00
4637;DHT22;2331;48.806;9.140;2024-03-22T00:56:01;13.30;1.00
4637;DHT22;2331;48.806;9.140;2024-03-22T00:58:28;13.30;1.00
4637;DHT22;2331;48.806;9.140;2024-03-22T01:00:54;13.30;1.00
4637;DHT22;2331;48.806;9.140;2024-03-22T01:03:21;13.20;1.00
4637;DHT22;2331;48.806;9.140;2024-03-22T01:05:47;13.20;1.00
4637;DHT22;2331;48.806;9.140;2024-03-22T01:08:15;13.10;1.00
4637;DHT22;2331;48.806;9.140;2024-03-22T01:10:41;13.00;1.00
4637;DHT22;2331;48.806;9.140;2024-03-22T01:13:08;13.00;1.00
4637;DHT22;2331;48.806;9.140;2024-03-22T01:15:34;13.00;1.00
4637;DHT22;2331;48.806;9.140;2024-03-22T01:18:01;13.00;1.00
4637;DHT22;2331;48.806;9.140;2024-03-22T01:20:26;12.90;1.00
4637;DHT22;2331;48.806;9.140;2024-03-22T01:22:53;12.90;1.00
4637;DHT22;2331;48.806;9.140;2024-03-22T01:25:20;12.80;1.00
4637;DHT22;2331;48.806;9.140;2024-03-22T01:27:47;12.80;1.00
4637;DHT22;2331;48.806;9.140;2024-03-22T01:30:13;12.80;1.00
4637;DHT22;2331;48.806;9.140;2024-03-22T01:32:40;12.80;1.00
4637;DHT22;2331;48.806;9.140;2024-03-22T01:35:06;12.80;1.00
4637;DHT22;2331;48.806;9.140;2024-03-22T01:37:32;12.70;1.00
4637;DHT22;2331;48.806;9.140;2024-03-22T01:39:58;12.70;1.00
4637;DHT22;2331;48.806;9.140;2024-03-22T01:42:26;12.70;1.00
4637;DHT22;2331;48.806;9.140;2024-03-22T01:44:52;12.60;1.00
4637;DHT22;2331;48.806;9.140;2024-03-22T01:47:19;12.60;1.00
4637;DHT22;2331;48.806;9.140;2024-03-22T01:49:45;12.50;1.00
4637;DHT22;2331;48.806;9.140;2024-03-22T01:52:12;12.50;1.00
4637;DHT22;2331;48.806;9.140;2024-03-22T01:54:37;12.50;1.00
4637;DHT22;2331;48.806;9.140;2024-03-22T01:57:05;12.40;1.00
4637;DHT22;2331;48.806;9.140;2024-03-22T01:59:32;12.40;1.00
4637;DHT22;2331;48.806;9.140;2024-03-22T02:02:00;12.30;1.00
4637;DHT22;2331;48.806;9.140;2024-03-22T02:04:25;12.30;1.00
4637;DHT22;2331;48.806;9.140;2024-03-22T02:06:52;12.20;1.00
4637;DHT22;2331;48.806;9.140;2024-03-22T02:09:18;12.20;1.00
4637;DHT22;2331;48.806;9.140;2024-03-22T02:11:46;12.10;1.00
4637;DHT22;2331;48.806;9.140;2024-03-22T02:14:12;12.10;1.00
4637;DHT22;2331;48.806;9.140;2024-03-22T02:16:41;12.10;1.00
4637;DHT22;2331;48.806;9.140;2024-03-22T02:19:07;12.10;1.00
4637;DHT22;2331;48.806;9.140;2024-03-22T02:21:37;12.10;1.00
4637;DHT22;2331;48.806;9.140;2024-03-22T02:24:05;12.00;1.00
4637;DHT22;2331;48.806;9.140;2024-03-22T02:26:32;12.00;1.00
4637;DHT22;2331;48.806;9.140;2024-03-22T02:28:58;11.90;1.00
4637;DHT22;2331;48.806;9.140;2024-03-22T02:31:24;11.90;1.00
4637;DHT22;2331;48.806;9.140;2024-03-22T02:33:52;11.80;1.00
4637;DHT22;2331;48.806;9.140;2024-03-22T02:36:19;11.80;1.00
4637;DHT22;2331;48.806;9.140;2024-03-22T02:38:44;11.80;1.00
4637;DHT22;2331;48.806;9.140;2024-03-22T02:41:12;11.70;1.00
4637;DHT22;2331;48.806;9.140;2024-03-22T02:43:38;11.80;1.00
4637;DHT22;2331;48.806;9.140;2024-03-22T02:46:05;11.70;1.00
4637;DHT22;2331;48.806;9.140;2024-03-22T02:48:31;11.70;1.00
4637;DHT22;2331;48.806;9.140;2024-03-22T02:50:58;11.70;1.00
4637;DHT22;2331;48.806;9.140;2024-03-22T02:53:24;11.70;1.00
4637;DHT22;2331;48.806;9.140;2024-03-22T02:55:51;11.70;1.00
4637;DHT22;2331;48.806;9.140;2024-03-22T02:58:20;11.70;1.00
4637;DHT22;2331;48.806;9.140;2024-03-22T03:00:48;11.60;1.00
4637;DHT22;2331;48.806;9.140;2024-03-22T03:03:14;11.60;1.00
4637;DHT22;2331;48.806;9.140;2024-03-22T03:05:41;11.60;1.00
4637;DHT22;2331;48.806;9.140;2024-03-22T03:08:10;11.60;1.00
4637;DHT22;2331;48.806;9.140;2024-03-22T03:10:37;11.60;1.00
4637;DHT22;2331;48.806;9.140;2024-03-22T03:13:04;11.60;1.00
4637;DHT22;2331;48.806;9.140;2024-03-22T03:15:32;11.60;1.00
4637;DHT22;2331;48.806;9.140;2024-03-22T03:18:00;11.50;1.00
4637;DHT22;2331;48.806;9.140;2024-03-22T03:20:27;11.50;1.00
4637;DHT22;2331;48.806;9.140;2024-03-22T03:22:55;11.50;1.00
4637;DHT22;2331;48.806;9.140;2024-03-22T03:25:25;11.50;1.00
4637;DHT22;2331;48.806;9.140;2024-03-22T03:27:50;11.50;1.00
4637;DHT22;2331;48.806;9.140;2024-03-22T03:30:17;11.50;1.00
4637;DHT22;2331;48.806;9.140;2024-03-22T03:32:48;11.50;1.00
4637;DHT22;2331;48.806;9.140;2024-03-22T03:35:14;11.50;1.00
4637;DHT22;2331;48.806;9.140;2024-03-22T03:37:40;11.50;1.00
4637;DHT22;2331;48.806;9.140;2024-03-22T03:40:08;11.50;1.00
4637;DHT22;2331;48.806;9.140;2024-03-22T03:42:34;11.50;1.00
4637;DHT22;2331;48.806;9.140;2024-03-22T03:45:00;11.50;1.00
4637;DHT22;2331;48.806;9.140;2024-03-22T03:47:26;11.50;1.00
4637;DHT22;2331;48.806;9.140;2024-03-22T03:49:54;11.40;1.00
4637;DHT22;2331;48.806;9.140;2024-03-22T03:52:20;11.40;1.00
4637;DHT22;2331;48.806;9.140;2024-03-22T03:54:47;11.50;1.00
4637;DHT22;2331;48.806;9.140;2024-03-22T03:57:13;11.40;1.00
4637;DHT22;2331;48.806;9.140;2024-03-22T03:59:40;11.40;1.00
4637;DHT22;2331;48.806;9.140;2024-03-22T04:02:06;11.40;1.00
4637;DHT22;2331;48.806;9.140;2024-03-22T04:04:33;11.40;1.00
4637;DHT22;2331;48.806;9.140;2024-03-22T04:07:00;11.40;1.00
4637;DHT22;2331;48.806;9.140;2024-03-22T04:09:26;11.40;1.00
4637;DHT22;2331;48.806;9.140;2024-03-22T04:11:52;11.40;1.00
4637;DHT22;2331;48.806;9.140;2024-03-22T04:14:19;11.40;1.00
4637;DHT22;2331;48.806;9.140;2024-03-22T04:16:45;11.40;1.00
4637;DHT22;2331;48.806;9.140;2024-03-22T04:19:11;11.30;1.00
4637;DHT22;2331;48.806;9.140;2024-03-22T04:21:40;11.30;1.00
4637;DHT22;2331;48.806;9.140;2024-03-22T04:24:08;11.30;1.00
4637;DHT22;2331;48.806;9.140;2024-03-22T04:26:34;11.30;1.00
4637;DHT22;2331;48.806;9.140;2024-03-22T04:29:00;11.30;1.00
4637;DHT22;2331;48.806;9.140;2024-03-22T04:31:26;11.20;1.00
4637;DHT22;2331;48.806;9.140;2024-03-22T04:33:53;11.30;1.00
4637;DHT22;2331;48.806;9.140;2024-03-22T04:36:19;11.30;1.00
4637;DHT22;2331;48.806;9.140;2024-03-22T04:38:45;11.30;1.00
4637;DHT22;2331;48.806;9.140;2024-03-22T04:41:14;11.30;1.00
4637;DHT22;2331;48.806;9.140;2024-03-22T04:43:40;11.20;1.00
4637;DHT22;2331;48.806;9.140;2024-03-22T04:46:07;11.30;1.00
4637;DHT22;2331;48.806;9.140;2024-03-22T04:48:34;11.20;1.00
4637;DHT22;2331;48.806;9.140;2024-03-22T04:51:00;11.30;1.00
4637;DHT22;2331;48.806;9.140;2024-03-22T04:53:30;11.30;1.00
4637;DHT22;2331;48.806;9.140;2024-03-22T04:55:56;11.20;1.00
4637;DHT22;2331;48.806;9.140;2024-03-22T04:58:24;11.30;1.00
4637;DHT22;2331;48.806;9.140;2024-03-22T05:00:56;11.30;1.00
4637;DHT22;2331;48.806;9.140;2024-03-22T05:03:23;11.30;1.00
4637;DHT22;2331;48.806;9.140;2024-03-22T05:05:50;11.30;1.00
4637;DHT22;2331;48.806;9.140;2024-03-22T05:08:17;11.30;1.00
4637;DHT22;2331;48.806;9.140;2024-03-22T05:10:43;11.30;1.00
4637;DHT22;2331;48.806;9.140;2024-03-22T05:13:10;11.30;1.00
4637;DHT22;2331;48.806;9.140;2024-03-22T05:15:37;11.30;1.00
4637;DHT22;2331;48.806;9.140;2024-03-22T05:18:04;11.30;1.00
4637;DHT22;2331;48.806;9.140;2024-03-22T05:20:30;11.30;1.00
4637;DHT22;2331;48.806;9.140;2024-03-22T05:22:57;11.30;1.00
4637;DHT22;2331;48.806;9.140;2024-03-22T05:25:23;11.30;1.00
4637;DHT22;2331;48.806;9.140;2024-03-22T05:27:49;11.40;1.00
4637;DHT22;2331;48.806;9.140;2024-03-22T05:30:15;11.40;1.00
4637;DHT22;2331;48.806;9.140;2024-03-22T05:32:43;11.40;1.00
4637;DHT22;2331;48.806;9.140;2024-03-22T05:35:09;11.40;1.00
4637;DHT22;2331;48.806;9.140;2024-03-22T05:37:36;11.30;1.00
4637;DHT22;2331;48.806;9.140;2024-03-22T05:40:02;11.40;1.00
4637;DHT22;2331;48.806;9.140;2024-03-22T05:42:29;11.40;1.00
4637;DHT22;2331;48.806;9.140;2024-03-22T05:44:55;11.40;1.00
4637;DHT22;2331;48.806;9.140;2024-03-22T05:47:22;11.40;1.00
4637;DHT22;2331;48.806;9.140;2024-03-22T05:49:49;11.40;1.00
4637;DHT22;2331;48.806;9.140;2024-03-22T05:52:17;11.40;1.00
4637;DHT22;2331;48.806;9.140;2024-03-22T05:54:43;11.40;1.00
4637;DHT22;2331;48.806;9.140;2024-03-22T05:57:11;11.40;1.00
4637;DHT22;2331;48.806;9.140;2024-03-22T05:59:37;11.50;1.00
4637;DHT22;2331;48.806;9.140;2024-03-22T06:02:15;11.40;1.00
4637;DHT22;2331;48.806;9.140;2024-03-22T06:04:41;11.50;1.00
4637;DHT22;2331;48.806;9.140;2024-03-22T06:07:09;11.50;1.00
4637;DHT22;2331;48.806;9.140;2024-03-22T06:09:35;11.50;1.00
4637;DHT22;2331;48.806;9.140;2024-03-22T06:12:11;11.50;1.00
4637;DHT22;2331;48.806;9.140;2024-03-22T06:14:40;11.50;1.00
4637;DHT22;2331;48.806;9.140;2024-03-22T06:17:08;11.60;1.00
4637;DHT22;2331;48.806;9.140;2024-03-22T06:19:34;11.60;1.00
4637;DHT22;2331;48.806;9.140;2024-03-22T06:22:01;11.60;1.00
4637;DHT22;2331;48.806;9.140;2024-03-22T06:24:29;11.60;1.00
4637;DHT22;2331;48.806;9.140;2024-03-22T06:26:56;11.60;1.00
4637;DHT22;2331;48.806;9.140;2024-03-22T06:29:22;11.60;1.00
4637;DHT22;2331;48.806;9.140;2024-03-22T06:31:50;11.60;1.00
4637;DHT22;2331;48.806;9.140;2024-03-22T06:34:18;11.70;1.00
4637;DHT22;2331;48.806;9.140;2024-03-22T06:36:45;11.70;1.00
4637;DHT22;2331;48.806;9.140;2024-03-22T06:39:11;11.70;1.00
4637;DHT22;2331;48.806;9.140;2024-03-22T06:41:39;11.70;1.00
4637;DHT22;2331;48.806;9.140;2024-03-22T06:44:05;11.80;1.00
4637;DHT22;2331;48.806;9.140;2024-03-22T06:46:32;11.70;1.00
4637;DHT22;2331;48.806;9.140;2024-03-22T06:48:58;11.80;1.00
4637;DHT22;2331;48.806;9.140;2024-03-22T06:51:25;11.80;1.00
4637;DHT22;2331;48.806;9.140;2024-03-22T06:53:51;11.80;1.00
4637;DHT22;2331;48.806;9.140;2024-03-22T06:56:17;11.80;1.00
4637;DHT22;2331;48.806;9.140;2024-03-22T06:58:45;11.90;1.00
4637;DHT22;2331;48.806;9.140;2024-03-22T07:01:12;11.90;1.00
4637;DHT22;2331;48.806;9.140;2024-03-22T07:03:37;11.90;1.00
4637;DHT22;2331;48.806;9.140;2024-03-22T07:06:05;11.90;1.00
4637;DHT22;2331;48.806;9.140;2024-03-22T07:08:33;12.00;1.00
4637;DHT22;2331;48.806;9.140;2024-03-22T07:11:04;11.90;1.00
4637;DHT22;2331;48.806;9.140;2024-03-22T07:13:30;12.00;1.00
4637;DHT22;2331;48.806;9.140;2024-03-22T07:15:58;12.00;1.00
4637;DHT22;2331;48.806;9.140;2024-03-22T07:18:23;12.00;1.00
4637;DHT22;2331;48.806;9.140;2024-03-22T07:20:51;12.00;1.00
4637;DHT22;2331;48.806;9.140;2024-03-22T07:23:17;12.00;1.00
4637;DHT22;2331;48.806;9.140;2024-03-22T07:25:44;12.00;1.00
4637;DHT22;2331;48.806;9.140;2024-03-22T07:28:11;12.10;1.00
4637;DHT22;2331;48.806;9.140;2024-03-22T07:30:38;12.10;1.00
4637;DHT22;2331;48.806;9.140;2024-03-22T07:33:05;12.10;1.00
4637;DHT22;2331;48.806;9.140;2024-03-22T07:35:34;12.20;1.00
4637;DHT22;2331;48.806;9.140;2024-03-22T07:38:00;12.20;1.00
4637;DHT22;2331;48.806;9.140;2024-03-22T07:40:27;12.30;1.00
4637;DHT22;2331;48.806;9.140;2024-03-22T07:42:53;12.30;1.00
4637;DHT22;2331;48.806;9.140;2024-03-22T07:45:20;12.40;1.00
4637;DHT22;2331;48.806;9.140;2024-03-22T07:47:45;12.40;1.00
4637;DHT22;2331;48.806;9.140;2024-03-22T07:50:15;12.50;1.00
4637;DHT22;2331;48.806;9.140;2024-03-22T07:52:42;12.50;1.00
4637;DHT22;2331;48.806;9.140;2024-03-22T07:55:11;12.60;1.00
4637;DHT22;2331;48.806;9.140;2024-03-22T07:57:37;12.60;1.00
4637;DHT22;2331;48.806;9.140;2024-03-22T08:00:05;12.70;1.00
4637;DHT22;2331;48.806;9.140;2024-03-22T08:02:32;12.70;1.00
4637;DHT22;2331;48.806;9.140;2024-03-22T08:04:59;12.80;1.00
4637;DHT22;2331;48.806;9.140;2024-03-22T08:07:26;12.80;1.00
4637;DHT22;2331;48.806;9.140;2024-03-22T08:09:53;12.90;1.00
4637;DHT22;2331;48.806;9.140;2024-03-22T08:12:22;13.00;1.00
4637;DHT22;2331;48.806;9.140;2024-03-22T08:14:50;13.10;1.00
4637;DHT22;2331;48.806;9.140;2024-03-22T08:17:16;13.10;1.00
4637;DHT22;2331;48.806;9.140;2024-03-22T08:19:42;13.20;1.00
4637;DHT22;2331;48.806;9.140;2024-03-22T08:22:10;13.30;1.00
4637;DHT22;2331;48.806;9.140;2024-03-22T08:24:38;13.40;1.00
4637;DHT22;2331;48.806;9.140;2024-03-22T08:27:04;13.40;1.00
4637;DHT22;2331;48.806;9.140;2024-03-22T08:29:33;13.60;1.00
4637;DHT22;2331;48.806;9.140;2024-03-22T08:31:59;13.70;1.00
4637;DHT22;2331;48.806;9.140;2024-03-22T08:34:28;13.90;1.00
4637;DHT22;2331;48.806;9.140;2024-03-22T08:36:54;14.00;1.00
4637;DHT22;2331;48.806;9.140;2024-03-22T08:39:21;14.20;1.00
4637;DHT22;2331;48.806;9.140;2024-03-22T08:41:48;14.30;1.00
4637;DHT22;2331;48.806;9.140;2024-03-22T08:44:15;14.50;1.00
4637;DHT22;2331;48.806;9.140;2024-03-22T08:46:41;14.60;1.00
4637;DHT22;2331;48.806;9.140;2024-03-22T08:49:08;14.70;1.00
4637;DHT22;2331;48.806;9.140;2024-03-22T08:51:34;14.80;1.00
4637;DHT22;2331;48.806;9.140;2024-03-22T08:54:01;14.80;1.00
4637;DHT22;2331;48.806;9.140;2024-03-22T08:56:27;14.90;1.00
4637;DHT22;2331;48.806;9.140;2024-03-22T08:58:56;14.90;1.00
4637;DHT22;2331;48.806;9.140;2024-03-22T09:01:21;15.10;1.00
4637;DHT22;2331;48.806;9.140;2024-03-22T09:03:48;15.20;1.00
4637;DHT22;2331;48.806;9.140;2024-03-22T09:06:16;15.20;1.00
4637;DHT22;2331;48.806;9.140;2024-03-22T09:08:43;15.30;1.00
4637;DHT22;2331;48.806;9.140;2024-03-22T09:11:09;15.30;1.00
4637;DHT22;2331;48.806;9.140;2024-03-22T09:13:36;15.40;1.00
4637;DHT22;2331;48.806;9.140;2024-03-22T09:16:03;15.50;1.00
4637;DHT22;2331;48.806;9.140;2024-03-22T09:18:30;15.60;1.00
4637;DHT22;2331;48.806;9.140;2024-03-22T09:20:56;15.70;1.00
4637;DHT22;2331;48.806;9.140;2024-03-22T09:23:26;15.80;1.00
4637;DHT22;2331;48.806;9.140;2024-03-22T09:25:52;15.80;1.00
4637;DHT22;2331;48.806;9.140;2024-03-22T09:28:19;15.90;1.00
4637;DHT22;2331;48.806;9.140;2024-03-22T09:30:44;16.00;1.00
4637;DHT22;2331;48.806;9.140;2024-03-22T09:33:14;15.90;1.00
4637;DHT22;2331;48.806;9.140;2024-03-22T09:35:40;16.10;1.00
4637;DHT22;2331;48.806;9.140;2024-03-22T09:38:07;16.20;1.00
4637;DHT22;2331;48.806;9.140;2024-03-22T09:40:34;16.40;1.00
4637;DHT22;2331;48.806;9.140;2024-03-22T09:43:02;16.40;1.00
4637;DHT22;2331;48.806;9.140;2024-03-22T09:45:34;16.50;1.00
4637;DHT22;2331;48.806;9.140;2024-03-22T09:48:01;16.60;1.00
4637;DHT22;2331;48.806;9.140;2024-03-22T09:50:29;16.70;1.00
4637;DHT22;2331;48.806;9.140;2024-03-22T09:52:57;16.60;1.00
4637;DHT22;2331;48.806;9.140;2024-03-22T09:55:24;16.70;1.00
4637;DHT22;2331;48.806;9.140;2024-03-22T09:57:51;17.00;1.00
4637;DHT22;2331;48.806;9.140;2024-03-22T10:00:22;17.10;1.00
4637;DHT22;2331;48.806;9.140;2024-03-22T10:02:51;17.10;1.00
4637;DHT22;2331;48.806;9.140;2024-03-22T10:05:19;17.10;1.00
4637;DHT22;2331;48.806;9.140;2024-03-22T10:07:47;17.30;1.00
4637;DHT22;2331;48.806;9.140;2024-03-22T10:10:13;17.20;1.00
4637;DHT22;2331;48.806;9.140;2024-03-22T10:12:41;17.30;1.00
4637;DHT22;2331;48.806;9.140;2024-03-22T10:15:09;17.40;1.00
4637;DHT22;2331;48.806;9.140;2024-03-22T10:17:37;17.50;1.00
4637;DHT22;2331;48.806;9.140;2024-03-22T10:20:04;17.70;1.00
4637;DHT22;2331;48.806;9.140;2024-03-22T10:22:32;17.70;1.00
4637;DHT22;2331;48.806;9.140;2024-03-22T10:24:59;17.70;1.00
4637;DHT22;2331;48.806;9.140;2024-03-22T10:27:27;17.70;1.00
4637;DHT22;2331;48.806;9.140;2024-03-22T10:29:54;17.70;1.00
4637;DHT22;2331;48.806;9.140;2024-03-22T10:32:21;17.80;1.00
4637;DHT22;2331;48.806;9.140;2024-03-22T10:34:49;17.90;1.00
4637;DHT22;2331;48.806;9.140;2024-03-22T10:37:16;18.00;1.00
4637;DHT22;2331;48.806;9.140;2024-03-22T10:39:43;18.10;1.00
4637;DHT22;2331;48.806;9.140;2024-03-22T10:42:12;18.30;1.00
4637;DHT22;2331;48.806;9.140;2024-03-22T10:44:41;18.30;1.00
4637;DHT22;2331;48.806;9.140;2024-03-22T10:47:09;18.30;1.00
4637;DHT22;2331;48.806;9.140;2024-03-22T10:49:37;18.30;1.00
4637;DHT22;2331;48.806;9.140;2024-03-22T10:52:07;18.20;1.00
4637;DHT22;2331;48.806;9.140;2024-03-22T10:54:35;18.20;1.00
4637;DHT22;2331;48.806;9.140;2024-03-22T10:57:05;18.30;1.00
4637;DHT22;2331;48.806;9.140;2024-03-22T10:59:35;18.40;1.00
4637;DHT22;2331;48.806;9.140;2024-03-22T11:02:05;18.50;1.00
4637;DHT22;2331;48.806;9.140;2024-03-22T11:04:32;18.30;1.00
4637;DHT22;2331;48.806;9.140;2024-03-22T11:06:59;18.30;1.00
4637;DHT22;2331;48.806;9.140;2024-03-22T11:09:26;18.40;1.00
4637;DHT22;2331;48.806;9.140;2024-03-22T11:11:54;18.50;1.00
4637;DHT22;2331;48.806;9.140;2024-03-22T11:14:20;18.50;1.00
4637;DHT22;2331;48.806;9.140;2024-03-22T11:16:48;18.60;1.00
4637;DHT22;2331;48.806;9.140;2024-03-22T11:19:14;18.70;1.00
4637;DHT22;2331;48.806;9.140;2024-03-22T11:21:40;18.70;1.00
4637;DHT22;2331;48.806;9.140;2024-03-22T11:24:06;18.80;1.00
4637;DHT22;2331;48.806;9.140;2024-03-22T11:26:33;18.90;1.00
4637;DHT22;2331;48.806;9.140;2024-03-22T11:28:59;18.90;1.00
4637;DHT22;2331;48.806;9.140;2024-03-22T11:31:26;19.00;1.00
4637;DHT22;2331;48.806;9.140;2024-03-22T11:33:54;19.00;1.00
4637;DHT22;2331;48.806;9.140;2024-03-22T11:36:21;19.10;1.00
4637;DHT22;2331;48.806;9.140;2024-03-22T11:38:47;19.20;1.00
4637;DHT22;2331;48.806;9.140;2024-03-22T11:41:16;19.20;1.00
4637;DHT22;2331;48.806;9.140;2024-03-22T11:43:44;19.30;1.00
4637;DHT22;2331;48.806;9.140;2024-03-22T11:46:11;19.40;1.00
4637;DHT22;2331;48.806;9.140;2024-03-22T11:48:39;19.50;1.00
4637;DHT22;2331;48.806;9.140;2024-03-22T11:51:08;19.50;1.00
4637;DHT22;2331;48.806;9.140;2024-03-22T11:53:35;19.50;1.00
4637;DHT22;2331;48.806;9.140;2024-03-22T11:56:02;19.60;1.00
4637;DHT22;2331;48.806;9.140;2024-03-22T11:58:29;19.80;1.00
4637;DHT22;2331;48.806;9.140;2024-03-22T12:00:57;19.70;1.00
4637;DHT22;2331;48.806;9.140;2024-03-22T12:03:23;19.70;1.00
4637;DHT22;2331;48.806;9.140;2024-03-22T12:05:51;19.60;1.00
4637;DHT22;2331;48.806;9.140;2024-03-22T12:08:19;19.60;1.00
4637;DHT22;2331;48.806;9.140;2024-03-22T12:10:46;19.50;1.00
4637;DHT22;2331;48.806;9.140;2024-03-22T12:13:12;19.60;1.00
4637;DHT22;2331;48.806;9.140;2024-03-22T12:15:38;19.80;1.00
4637;DHT22;2331;48.806;9.140;2024-03-22T12:18:05;19.90;1.00
4637;DHT22;2331;48.806;9.140;2024-03-22T12:20:33;19.90;1.00
4637;DHT22;2331;48.806;9.140;2024-03-22T12:23:01;20.10;1.00
4637;DHT22;2331;48.806;9.140;2024-03-22T12:25:30;20.10;1.00
4637;DHT22;2331;48.806;9.140;2024-03-22T12:28:05;20.10;1.00
4637;DHT22;2331;48.806;9.140;2024-03-22T12:30:35;20.00;1.00
4637;DHT22;2331;48.806;9.140;2024-03-22T12:33:01;20.10;1.00
4637;DHT22;2331;48.806;9.140;2024-03-22T12:35:28;20.00;1.00
4637;DHT22;2331;48.806;9.140;2024-03-22T12:37:58;19.90;1.00
4637;DHT22;2331;48.806;9.140;2024-03-22T12:40:30;20.00;1.00
4637;DHT22;2331;48.806;9.140;2024-03-22T12:42:58;20.10;1.00
4637;DHT22;2331;48.806;9.140;2024-03-22T12:45:24;20.10;1.00
4637;DHT22;2331;48.806;9.140;2024-03-22T12:47:51;20.20;1.00
4637;DHT22;2331;48.806;9.140;2024-03-22T12:50:18;20.10;1.00
4637;DHT22;2331;48.806;9.140;2024-03-22T12:52:44;20.30;1.00
4637;DHT22;2331;48.806;9.140;2024-03-22T12:55:11;20.40;1.00
4637;DHT22;2331;48.806;9.140;2024-03-22T12:57:38;20.40;1.00
4637;DHT22;2331;48.806;9.140;2024-03-22T13:00:07;20.50;1.00
4637;DHT22;2331;48.806;9.140;2024-03-22T13:02:39;20.50;1.00
4637;DHT22;2331;48.806;9.140;2024-03-22T13:05:06;20.60;1.00
4637;DHT22;2331;48.806;9.140;2024-03-22T13:07:32;20.60;1.00
4637;DHT22;2331;48.806;9.140;2024-03-22T13:10:00;20.40;1.00
4637;DHT22;2331;48.806;9.140;2024-03-22T13:12:26;20.50;1.00
4637;DHT22;2331;48.806;9.140;2024-03-22T13:14:54;20.60;1.00
4637;DHT22;2331;48.806;9.140;2024-03-22T13:17:20;20.60;1.00
4637;DHT22;2331;48.806;9.140;2024-03-22T13:19:47;20.70;1.00
4637;DHT22;2331;48.806;9.140;2024-03-22T13:22:13;20.60;1.00
4637;DHT22;2331;48.806;9.140;2024-03-22T13:24:44;20.70;1.00
4637;DHT22;2331;48.806;9.140;2024-03-22T13:27:11;20.60;1.00
4637;DHT22;2331;48.806;9.140;2024-03-22T13:29:38;20.60;1.00
4637;DHT22;2331;48.806;9.140;2024-03-22T13:32:08;20.50;1.00
4637;DHT22;2331;48.806;9.140;2024-03-22T13:34:34;20.40;1.00
4637;DHT22;2331;48.806;9.140;2024-03-22T13:37:01;20.40;1.00
4637;DHT22;2331;48.806;9.140;2024-03-22T13:39:27;20.40;1.00
4637;DHT22;2331;48.806;9.140;2024-03-22T13:41:55;20.50;1.00
4637;DHT22;2331;48.806;9.140;2024-03-22T13:44:21;20.50;1.00
4637;DHT22;2331;48.806;9.140;2024-03-22T13:46:49;20.40;1.00
4637;DHT22;2331;48.806;9.140;2024-03-22T13:49:19;20.60;1.00
4637;DHT22;2331;48.806;9.140;2024-03-22T13:51:47;20.50;1.00
4637;DHT22;2331;48.806;9.140;2024-03-22T13:54:13;20.60;1.00
4637;DHT22;2331;48.806;9.140;2024-03-22T13:56:40;20.60;1.00
4637;DHT22;2331;48.806;9.140;2024-03-22T13:59:06;20.60;1.00
4637;DHT22;2331;48.806;9.140;2024-03-22T14:01:33;20.70;1.00
4637;DHT22;2331;48.806;9.140;2024-03-22T14:03:59;20.80;1.00
4637;DHT22;2331;48.806;9.140;2024-03-22T14:06:28;20.80;1.00
4637;DHT22;2331;48.806;9.140;2024-03-22T14:08:53;20.70;1.00
4637;DHT22;2331;48.806;9.140;2024-03-22T14:11:25;20.70;1.00
4637;DHT22;2331;48.806;9.140;2024-03-22T14:13:51;20.60;1.00
4637;DHT22;2331;48.806;9.140;2024-03-22T14:16:18;20.50;1.00
4637;DHT22;2331;48.806;9.140;2024-03-22T14:18:44;20.50;1.00
4637;DHT22;2331;48.806;9.140;2024-03-22T14:21:10;20.50;1.00
4637;DHT22;2331;48.806;9.140;2024-03-22T14:23:41;20.40;1.00
4637;DHT22;2331;48.806;9.140;2024-03-22T14:26:11;20.20;1.00
4637;DHT22;2331;48.806;9.140;2024-03-22T14:28:36;20.20;1.00
4637;DHT22;2331;48.806;9.140;2024-03-22T14:31:05;20.30;1.00
4637;DHT22;2331;48.806;9.140;2024-03-22T14:33:33;20.20;1.00
4637;DHT22;2331;48.806;9.140;2024-03-22T14:36:00;20.30;1.00
4637;DHT22;2331;48.806;9.140;2024-03-22T14:38:27;20.30;1.00
4637;DHT22;2331;48.806;9.140;2024-03-22T14:40:55;20.30;1.00
4637;DHT22;2331;48.806;9.140;2024-03-22T14:43:22;20.20;1.00
4637;DHT22;2331;48.806;9.140;2024-03-22T14:45:49;20.10;1.00
4637;DHT22;2331;48.806;9.140;2024-03-22T14:48:16;20.20;1.00
4637;DHT22;2331;48.806;9.140;2024-03-22T14:50:42;20.20;1.00
4637;DHT22;2331;48.806;9.140;2024-03-22T14:53:09;20.20;1.00
4637;DHT22;2331;48.806;9.140;2024-03-22T14:55:36;20.20;1.00
4637;DHT22;2331;48.806;9.140;2024-03-22T14:58:05;20.20;1.00
4637;DHT22;2331;48.806;9.140;2024-03-22T15:00:31;20.10;1.00
4637;DHT22;2331;48.806;9.140;2024-03-22T15:02:58;20.20;1.00
4637;DHT22;2331;48.806;9.140;2024-03-22T15:05:24;20.20;1.00
4637;DHT22;2331;48.806;9.140;2024-03-22T15:07:51;20.30;1.00
4637;DHT22;2331;48.806;9.140;2024-03-22T15:10:18;20.30;1.00
4637;DHT22;2331;48.806;9.140;2024-03-22T15:12:46;20.20;1.00
4637;DHT22;2331;48.806;9.140;2024-03-22T15:15:13;20.10;1.00
4637;DHT22;2331;48.806;9.140;2024-03-22T15:17:40;20.10;1.00
4637;DHT22;2331;48.806;9.140;2024-03-22T15:20:08;20.20;1.00
4637;DHT22;2331;48.806;9.140;2024-03-22T15:22:35;20.20;1.00
4637;DHT22;2331;48.806;9.140;2024-03-22T15:25:00;20.10;1.00
4637;DHT22;2331;48.806;9.140;2024-03-22T15:27:27;20.00;1.00
4637;DHT22;2331;48.806;9.140;2024-03-22T15:29:53;20.00;1.00
4637;DHT22;2331;48.806;9.140;2024-03-22T15:32:21;19.90;1.00
4637;DHT22;2331;48.806;9.140;2024-03-22T15:34:54;20.00;1.00
4637;DHT22;2331;48.806;9.140;2024-03-22T15:37:21;20.00;1.00
4637;DHT22;2331;48.806;9.140;2024-03-22T15:39:47;20.00;1.00
4637;DHT22;2331;48.806;9.140;2024-03-22T15:42:13;19.90;1.00
4637;DHT22;2331;48.806;9.140;2024-03-22T15:44:39;20.00;1.00
4637;DHT22;2331;48.806;9.140;2024-03-22T15:47:06;19.90;1.00
4637;DHT22;2331;48.806;9.140;2024-03-22T15:49:34;19.90;1.00
4637;DHT22;2331;48.806;9.140;2024-03-22T15:52:01;20.00;1.00
4637;DHT22;2331;48.806;9.140;2024-03-22T15:54:27;20.00;1.00
4637;DHT22;2331;48.806;9.140;2024-03-22T15:56:54;20.00;1.00
4637;DHT22;2331;48.806;9.140;2024-03-22T15:59:20;19.80;1.00
4637;DHT22;2331;48.806;9.140;2024-03-22T16:01:46;19.80;1.00
4637;DHT22;2331;48.806;9.140;2024-03-22T16:04:12;19.80;1.00
4637;DHT22;2331;48.806;9.140;2024-03-22T16:06:41;19.90;1.00
4637;DHT22;2331;48.806;9.140;2024-03-22T16:09:08;19.90;1.00
4637;DHT22;2331;48.806;9.140;2024-03-22T16:11:36;19.80;1.00
4637;DHT22;2331;48.806;9.140;2024-03-22T16:14:04;19.90;1.00
4637;DHT22;2331;48.806;9.140;2024-03-22T16:16:41;20.00;1.00